sensor_id;sensor_type;location;lat;lon;timestamp;temperature;humidity
37938;DHT22;23763;48.130;11.602;2023-05-14T00:01:14;12.00;99.90
37938;DHT22;23763;48.130;11.602;2023-05-14T00:03:39;12.10;99.90
37938;DHT22;23763;48.130;11.602;2023-05-14T00:06:06;12.00;99.90
37938;DHT22;23763;48.130;11.602;2023-05-14T00:08:32;12.00;99.90
37938;DHT22;23763;48.130;11.602;2023-05-14T00:10:58;12.00;99.90
37938;DHT22;23763;48.130;11.602;2023-05-14T00:13:24;11.90;99.90
37938;DHT22;23763;48.130;11.602;2023-05-14T00:15:50;12.00;99.90
37938;DHT22;23763;48.130;11.602;2023-05-14T00:18:16;11.90;99.90
37938;DHT22;23763;48.130;11.602;2023-05-14T00:20:42;11.90;99.90
37938;DHT22;23763;48.130;11.602;2023-05-14T00:23:07;11.80;99.90
37938;DHT22;23763;48.130;11.602;2023-05-14T00:25:33;11.90;99.90
37938;DHT22;23763;48.130;11.602;2023-05-14T00:27:58;11.80;99.90
37938;DHT22;23763;48.130;11.602;2023-05-14T00:30:24;11.80;99.90
37938;DHT22;23763;48.130;11.602;2023-05-14T00:32:49;11.80;99.90
37938;DHT22;23763;48.130;11.602;2023-05-14T00:35:15;11.90;99.90
37938;DHT22;23763;48.130;11.602;2023-05-14T00:37:41;11.90;99.90
37938;DHT22;23763;48.130;11.602;2023-05-14T00:40:07;12.00;99.90
37938;DHT22;23763;48.130;11.602;2023-05-14T00:42:33;12.00;99.90
37938;DHT22;23763;48.130;11.602;2023-05-14T00:44:58;11.90;99.90
37938;DHT22;23763;48.130;11.602;2023-05-14T00:47:25;11.90;99.90
37938;DHT22;23763;48.130;11.602;2023-05-14T00:49:51;11.80;99.90
37938;DHT22;23763;48.130;11.602;2023-05-14T00:52:17;11.80;99.90
37938;DHT22;23763;48.130;11.602;2023-05-14T00:54:44;11.80;99.90
37938;DHT22;23763;48.130;11.602;2023-05-14T00:57:11;11.80;99.90
37938;DHT22;23763;48.130;11.602;2023-05-14T00:59:37;11.80;99.90
37938;DHT22;23763;48.130;11.602;2023-05-14T01:02:05;11.80;99.90
37938;DHT22;23763;48.130;11.602;2023-05-14T01:04:30;11.90;99.90
37938;DHT22;23763;48.130;11.602;2023-05-14T01:10:00;11.80;99.90
37938;DHT22;23763;48.130;11.602;2023-05-14T01:12:33;11.80;99.90
37938;DHT22;23763;48.130;11.602;2023-05-14T01:17:32;11.90;99.90
37938;DHT22;23763;48.130;11.602;2023-05-14T01:20:02;11.80;99.90
37938;DHT22;23763;48.130;11.602;2023-05-14T01:22:27;11.90;99.90
37938;DHT22;23763;48.130;11.602;2023-05-14T01:24:53;11.90;99.90
37938;DHT22;23763;48.130;11.602;2023-05-14T01:27:34;11.90;99.90
37938;DHT22;23763;48.130;11.602;2023-05-14T01:32:32;11.80;99.90
37938;DHT22;23763;48.130;11.602;2023-05-14T01:34:59;11.90;99.90
37938;DHT22;23763;48.130;11.602;2023-05-14T01:37:26;11.80;99.90
37938;DHT22;23763;48.130;11.602;2023-05-14T01:39:52;11.70;99.90
37938;DHT22;23763;48.130;11.602;2023-05-14T01:42:19;11.70;99.90
37938;DHT22;23763;48.130;11.602;2023-05-14T01:44:46;11.70;99.90
37938;DHT22;23763;48.130;11.602;2023-05-14T01:47:12;11.60;99.90
37938;DHT22;23763;48.130;11.602;2023-05-14T01:49:37;11.70;99.90
37938;DHT22;23763;48.130;11.602;2023-05-14T01:52:03;11.70;99.90
37938;DHT22;23763;48.130;11.602;2023-05-14T01:54:29;11.70;99.90
37938;DHT22;23763;48.130;11.602;2023-05-14T01:56:54;11.60;99.90
37938;DHT22;23763;48.130;11.602;2023-05-14T01:59:20;11.70;99.90
37938;DHT22;23763;48.130;11.602;2023-05-14T02:01:46;11.60;99.90
37938;DHT22;23763;48.130;11.602;2023-05-14T02:04:11;11.60;99.90
37938;DHT22;23763;48.130;11.602;2023-05-14T02:06:37;11.50;99.90
37938;DHT22;23763;48.130;11.602;2023-05-14T02:09:03;11.50;99.90
37938;DHT22;23763;48.130;11.602;2023-05-14T02:11:29;11.50;99.90
37938;DHT22;23763;48.130;11.602;2023-05-14T02:13:54;11.40;99.90
37938;DHT22;23763;48.130;11.602;2023-05-14T02:16:20;11.50;99.90
37938;DHT22;23763;48.130;11.602;2023-05-14T02:18:45;11.50;99.90
37938;DHT22;23763;48.130;11.602;2023-05-14T02:21:11;11.50;99.90
37938;DHT22;23763;48.130;11.602;2023-05-14T02:23:37;11.50;99.90
37938;DHT22;23763;48.130;11.602;2023-05-14T02:26:02;11.60;99.90
37938;DHT22;23763;48.130;11.602;2023-05-14T02:28:28;11.50;99.90
37938;DHT22;23763;48.130;11.602;2023-05-14T02:30:59;11.50;99.90
37938;DHT22;23763;48.130;11.602;2023-05-14T02:33:26;11.50;99.90
37938;DHT22;23763;48.130;11.602;2023-05-14T02:35:51;11.40;99.90
37938;DHT22;23763;48.130;11.602;2023-05-14T02:38:17;11.40;99.90
37938;DHT22;23763;48.130;11.602;2023-05-14T02:40:43;11.40;99.90
37938;DHT22;23763;48.130;11.602;2023-05-14T02:43:09;11.30;99.90
37938;DHT22;23763;48.130;11.602;2023-05-14T02:45:34;11.30;99.90
37938;DHT22;23763;48.130;11.602;2023-05-14T02:48:00;11.30;99.90
37938;DHT22;23763;48.130;11.602;2023-05-14T02:50:26;11.40;99.90
37938;DHT22;23763;48.130;11.602;2023-05-14T02:52:51;11.40;99.90
37938;DHT22;23763;48.130;11.602;2023-05-14T02:55:17;11.30;99.90
37938;DHT22;23763;48.130;11.602;2023-05-14T02:57:42;11.30;99.90
37938;DHT22;23763;48.130;11.602;2023-05-14T03:00:08;11.30;99.90
37938;DHT22;23763;48.130;11.602;2023-05-14T03:02:34;11.30;99.90
37938;DHT22;23763;48.130;11.602;2023-05-14T03:05:00;11.20;99.90
37938;DHT22;23763;48.130;11.602;2023-05-14T03:07:26;11.20;99.90
37938;DHT22;23763;48.130;11.602;2023-05-14T03:09:51;11.20;99.90
37938;DHT22;23763;48.130;11.602;2023-05-14T03:12:17;11.30;99.90
37938;DHT22;23763;48.130;11.602;2023-05-14T03:14:43;11.20;99.90
37938;DHT22;23763;48.130;11.602;2023-05-14T03:17:08;11.20;99.90
37938;DHT22;23763;48.130;11.602;2023-05-14T03:19:34;11.20;99.90
37938;DHT22;23763;48.130;11.602;2023-05-14T03:21:59;11.20;99.90
37938;DHT22;23763;48.130;11.602;2023-05-14T03:24:25;11.20;99.90
37938;DHT22;23763;48.130;11.602;2023-05-14T03:26:51;11.10;99.90
37938;DHT22;23763;48.130;11.602;2023-05-14T03:29:17;11.20;99.90
37938;DHT22;23763;48.130;11.602;2023-05-14T03:31:43;11.10;99.90
37938;DHT22;23763;48.130;11.602;2023-05-14T03:34:09;11.20;99.90
37938;DHT22;23763;48.130;11.602;2023-05-14T03:36:35;11.20;99.90
37938;DHT22;23763;48.130;11.602;2023-05-14T03:39:03;11.20;99.90
37938;DHT22;23763;48.130;11.602;2023-05-14T03:41:31;11.20;99.90
37938;DHT22;23763;48.130;11.602;2023-05-14T03:43:57;11.30;99.90
37938;DHT22;23763;48.130;11.602;2023-05-14T03:46:22;11.20;99.90
37938;DHT22;23763;48.130;11.602;2023-05-14T03:48:48;11.20;99.90
37938;DHT22;23763;48.130;11.602;2023-05-14T03:51:13;11.20;99.90
37938;DHT22;23763;48.130;11.602;2023-05-14T03:53:39;11.20;99.90
37938;DHT22;23763;48.130;11.602;2023-05-14T03:56:05;11.20;99.90
37938;DHT22;23763;48.130;11.602;2023-05-14T03:58:31;11.10;99.90
37938;DHT22;23763;48.130;11.602;2023-05-14T04:00:56;11.20;99.90
37938;DHT22;23763;48.130;11.602;2023-05-14T04:03:22;11.20;99.90
37938;DHT22;23763;48.130;11.602;2023-05-14T04:05:49;11.10;99.90
37938;DHT22;23763;48.130;11.602;2023-05-14T04:08:15;11.00;99.90
37938;DHT22;23763;48.130;11.602;2023-05-14T04:10:41;10.90;99.90
37938;DHT22;23763;48.130;11.602;2023-05-14T04:13:07;11.00;99.90
37938;DHT22;23763;48.130;11.602;2023-05-14T04:15:33;11.00;99.90
37938;DHT22;23763;48.130;11.602;2023-05-14T04:18:00;10.90;99.90
37938;DHT22;23763;48.130;11.602;2023-05-14T04:20:26;10.90;99.90
37938;DHT22;23763;48.130;11.602;2023-05-14T04:22:52;10.90;99.90
37938;DHT22;23763;48.130;11.602;2023-05-14T04:25:18;11.00;99.90
37938;DHT22;23763;48.130;11.602;2023-05-14T04:27:44;11.00;99.90
37938;DHT22;23763;48.130;11.602;2023-05-14T04:30:10;11.00;99.90
37938;DHT22;23763;48.130;11.602;2023-05-14T04:32:36;11.00;99.90
37938;DHT22;23763;48.130;11.602;2023-05-14T04:35:03;11.00;99.90
37938;DHT22;23763;48.130;11.602;2023-05-14T04:37:29;11.00;99.90
37938;DHT22;23763;48.130;11.602;2023-05-14T04:39:55;11.00;99.90
37938;DHT22;23763;48.130;11.602;2023-05-14T04:42:21;10.90;99.90
37938;DHT22;23763;48.130;11.602;2023-05-14T04:44:46;10.90;99.90
37938;DHT22;23763;48.130;11.602;2023-05-14T04:47:12;11.00;99.90
37938;DHT22;23763;48.130;11.602;2023-05-14T04:49:38;11.00;99.90
37938;DHT22;23763;48.130;11.602;2023-05-14T04:52:05;11.00;99.90
37938;DHT22;23763;48.130;11.602;2023-05-14T04:54:30;10.90;99.90
37938;DHT22;23763;48.130;11.602;2023-05-14T04:56:56;11.00;99.90
37938;DHT22;23763;48.130;11.602;2023-05-14T04:59:21;11.10;99.90
37938;DHT22;23763;48.130;11.602;2023-05-14T05:01:47;11.10;99.90
37938;DHT22;23763;48.130;11.602;2023-05-14T05:04:13;11.00;99.90
37938;DHT22;23763;48.130;11.602;2023-05-14T05:06:38;11.00;99.90
37938;DHT22;23763;48.130;11.602;2023-05-14T05:09:04;11.00;99.90
37938;DHT22;23763;48.130;11.602;2023-05-14T05:11:29;11.00;99.90
37938;DHT22;23763;48.130;11.602;2023-05-14T05:13:55;11.00;99.90
37938;DHT22;23763;48.130;11.602;2023-05-14T05:16:21;10.90;99.90
37938;DHT22;23763;48.130;11.602;2023-05-14T05:18:47;10.90;99.90
37938;DHT22;23763;48.130;11.602;2023-05-14T05:21:12;11.00;99.90
37938;DHT22;23763;48.130;11.602;2023-05-14T05:23:38;11.10;99.90
37938;DHT22;23763;48.130;11.602;2023-05-14T05:26:03;11.00;99.90
37938;DHT22;23763;48.130;11.602;2023-05-14T05:28:29;11.10;99.90
37938;DHT22;23763;48.130;11.602;2023-05-14T05:30:55;11.10;99.90
37938;DHT22;23763;48.130;11.602;2023-05-14T05:33:20;11.10;99.90
37938;DHT22;23763;48.130;11.602;2023-05-14T05:35:46;11.10;99.90
37938;DHT22;23763;48.130;11.602;2023-05-14T05:38:13;11.00;99.90
37938;DHT22;23763;48.130;11.602;2023-05-14T05:40:39;11.00;99.90
37938;DHT22;23763;48.130;11.602;2023-05-14T05:43:05;11.00;99.90
37938;DHT22;23763;48.130;11.602;2023-05-14T05:45:31;11.00;99.90
37938;DHT22;23763;48.130;11.602;2023-05-14T05:47:56;11.10;99.90
37938;DHT22;23763;48.130;11.602;2023-05-14T05:50:23;11.10;99.90
37938;DHT22;23763;48.130;11.602;2023-05-14T05:52:48;11.20;99.90
37938;DHT22;23763;48.130;11.602;2023-05-14T05:55:14;11.30;99.90
37938;DHT22;23763;48.130;11.602;2023-05-14T05:57:40;11.40;99.90
37938;DHT22;23763;48.130;11.602;2023-05-14T06:00:06;11.30;99.90
37938;DHT22;23763;48.130;11.602;2023-05-14T06:02:38;11.30;99.90
37938;DHT22;23763;48.130;11.602;2023-05-14T06:05:04;11.30;99.90
37938;DHT22;23763;48.130;11.602;2023-05-14T06:07:30;11.30;99.90
37938;DHT22;23763;48.130;11.602;2023-05-14T06:09:56;11.30;99.90
37938;DHT22;23763;48.130;11.602;2023-05-14T06:12:21;11.30;99.90
37938;DHT22;23763;48.130;11.602;2023-05-14T06:14:47;11.30;99.90
37938;DHT22;23763;48.130;11.602;2023-05-14T06:17:12;11.30;99.90
37938;DHT22;23763;48.130;11.602;2023-05-14T06:19:38;11.40;99.90
37938;DHT22;23763;48.130;11.602;2023-05-14T06:22:03;11.50;99.90
37938;DHT22;23763;48.130;11.602;2023-05-14T06:24:29;11.70;99.90
37938;DHT22;23763;48.130;11.602;2023-05-14T06:26:54;11.60;99.90
37938;DHT22;23763;48.130;11.602;2023-05-14T06:29:20;11.70;99.90
37938;DHT22;23763;48.130;11.602;2023-05-14T06:31:46;11.80;99.90
37938;DHT22;23763;48.130;11.602;2023-05-14T06:34:11;11.80;99.90
37938;DHT22;23763;48.130;11.602;2023-05-14T06:36:37;11.90;99.90
37938;DHT22;23763;48.130;11.602;2023-05-14T06:39:03;11.80;99.90
37938;DHT22;23763;48.130;11.602;2023-05-14T06:41:28;11.80;99.90
37938;DHT22;23763;48.130;11.602;2023-05-14T06:43:54;11.80;99.90
37938;DHT22;23763;48.130;11.602;2023-05-14T06:46:20;11.80;99.90
37938;DHT22;23763;48.130;11.602;2023-05-14T06:48:45;11.60;99.90
37938;DHT22;23763;48.130;11.602;2023-05-14T06:51:11;11.60;99.90
37938;DHT22;23763;48.130;11.602;2023-05-14T06:53:38;11.50;99.90
37938;DHT22;23763;48.130;11.602;2023-05-14T06:56:04;11.60;99.90
37938;DHT22;23763;48.130;11.602;2023-05-14T06:58:29;11.60;99.90
37938;DHT22;23763;48.130;11.602;2023-05-14T07:00:55;11.70;99.90
37938;DHT22;23763;48.130;11.602;2023-05-14T07:03:21;11.70;99.90
37938;DHT22;23763;48.130;11.602;2023-05-14T07:05:47;11.60;99.90
37938;DHT22;23763;48.130;11.602;2023-05-14T07:08:12;11.70;99.90
37938;DHT22;23763;48.130;11.602;2023-05-14T07:10:38;11.80;99.90
37938;DHT22;23763;48.130;11.602;2023-05-14T07:13:04;12.00;99.90
37938;DHT22;23763;48.130;11.602;2023-05-14T07:15:30;12.10;99.90
37938;DHT22;23763;48.130;11.602;2023-05-14T07:17:56;12.20;99.90
37938;DHT22;23763;48.130;11.602;2023-05-14T07:20:21;12.30;99.90
37938;DHT22;23763;48.130;11.602;2023-05-14T07:22:51;12.30;99.90
37938;DHT22;23763;48.130;11.602;2023-05-14T07:25:17;12.40;99.90
37938;DHT22;23763;48.130;11.602;2023-05-14T07:27:43;12.30;99.90
37938;DHT22;23763;48.130;11.602;2023-05-14T07:30:08;12.40;99.90
37938;DHT22;23763;48.130;11.602;2023-05-14T07:32:34;12.40;99.90
37938;DHT22;23763;48.130;11.602;2023-05-14T07:35:00;12.40;99.90
37938;DHT22;23763;48.130;11.602;2023-05-14T07:37:26;12.40;99.90
37938;DHT22;23763;48.130;11.602;2023-05-14T07:39:52;12.50;99.90
37938;DHT22;23763;48.130;11.602;2023-05-14T07:42:18;12.40;99.90
37938;DHT22;23763;48.130;11.602;2023-05-14T07:44:43;12.50;99.90
37938;DHT22;23763;48.130;11.602;2023-05-14T07:47:09;12.50;99.90
37938;DHT22;23763;48.130;11.602;2023-05-14T07:49:35;12.70;99.90
37938;DHT22;23763;48.130;11.602;2023-05-14T07:52:00;12.80;99.90
37938;DHT22;23763;48.130;11.602;2023-05-14T07:54:26;13.00;99.90
37938;DHT22;23763;48.130;11.602;2023-05-14T07:56:52;13.10;99.90
37938;DHT22;23763;48.130;11.602;2023-05-14T07:59:17;13.30;99.90
37938;DHT22;23763;48.130;11.602;2023-05-14T08:01:43;13.50;99.90
37938;DHT22;23763;48.130;11.602;2023-05-14T08:04:09;13.60;99.90
37938;DHT22;23763;48.130;11.602;2023-05-14T08:06:36;13.80;99.90
37938;DHT22;23763;48.130;11.602;2023-05-14T08:09:02;13.70;99.90
37938;DHT22;23763;48.130;11.602;2023-05-14T08:11:30;13.60;99.90
37938;DHT22;23763;48.130;11.602;2023-05-14T08:13:55;13.50;99.90
37938;DHT22;23763;48.130;11.602;2023-05-14T08:16:21;13.40;99.90
37938;DHT22;23763;48.130;11.602;2023-05-14T08:18:48;13.30;99.90
37938;DHT22;23763;48.130;11.602;2023-05-14T08:21:13;13.30;99.90
37938;DHT22;23763;48.130;11.602;2023-05-14T08:23:39;13.10;99.90
37938;DHT22;23763;48.130;11.602;2023-05-14T08:26:05;13.10;99.90
37938;DHT22;23763;48.130;11.602;2023-05-14T08:28:31;12.90;99.90
37938;DHT22;23763;48.130;11.602;2023-05-14T08:30:56;13.00;99.90
37938;DHT22;23763;48.130;11.602;2023-05-14T08:33:22;12.80;99.90
37938;DHT22;23763;48.130;11.602;2023-05-14T08:35:51;13.00;99.90
37938;DHT22;23763;48.130;11.602;2023-05-14T08:38:17;12.90;99.90
37938;DHT22;23763;48.130;11.602;2023-05-14T08:40:47;13.00;99.90
37938;DHT22;23763;48.130;11.602;2023-05-14T08:43:17;13.00;99.90
37938;DHT22;23763;48.130;11.602;2023-05-14T08:45:44;13.10;99.90
37938;DHT22;23763;48.130;11.602;2023-05-14T08:48:14;13.00;99.90
37938;DHT22;23763;48.130;11.602;2023-05-14T08:50:43;13.10;99.90
37938;DHT22;23763;48.130;11.602;2023-05-14T08:53:08;13.20;99.90
37938;DHT22;23763;48.130;11.602;2023-05-14T08:55:34;13.30;99.90
37938;DHT22;23763;48.130;11.602;2023-05-14T08:58:01;13.10;99.90
37938;DHT22;23763;48.130;11.602;2023-05-14T09:00:27;13.00;99.90
37938;DHT22;23763;48.130;11.602;2023-05-14T09:02:53;13.00;99.90
37938;DHT22;23763;48.130;11.602;2023-05-14T09:05:19;12.70;99.90
37938;DHT22;23763;48.130;11.602;2023-05-14T09:07:46;12.70;99.90
37938;DHT22;23763;48.130;11.602;2023-05-14T09:10:12;12.80;99.90
37938;DHT22;23763;48.130;11.602;2023-05-14T09:12:39;12.90;99.90
37938;DHT22;23763;48.130;11.602;2023-05-14T09:15:05;13.00;99.90
37938;DHT22;23763;48.130;11.602;2023-05-14T09:17:32;13.10;99.90
37938;DHT22;23763;48.130;11.602;2023-05-14T09:19:58;13.10;99.90
37938;DHT22;23763;48.130;11.602;2023-05-14T09:22:27;13.10;99.90
37938;DHT22;23763;48.130;11.602;2023-05-14T09:25:07;13.20;99.90
37938;DHT22;23763;48.130;11.602;2023-05-14T09:27:34;13.40;99.90
37938;DHT22;23763;48.130;11.602;2023-05-14T09:30:08;13.50;99.90
37938;DHT22;23763;48.130;11.602;2023-05-14T09:32:39;13.70;99.90
37938;DHT22;23763;48.130;11.602;2023-05-14T09:35:17;13.90;99.90
37938;DHT22;23763;48.130;11.602;2023-05-14T09:37:48;14.00;99.90
37938;DHT22;23763;48.130;11.602;2023-05-14T09:40:14;14.10;99.90
37938;DHT22;23763;48.130;11.602;2023-05-14T09:42:40;14.10;99.90
37938;DHT22;23763;48.130;11.602;2023-05-14T09:45:09;14.00;99.90
37938;DHT22;23763;48.130;11.602;2023-05-14T09:47:39;14.00;99.90
37938;DHT22;23763;48.130;11.602;2023-05-14T09:50:05;13.80;99.90
37938;DHT22;23763;48.130;11.602;2023-05-14T09:52:31;13.80;99.90
37938;DHT22;23763;48.130;11.602;2023-05-14T09:54:57;13.70;99.90
37938;DHT22;23763;48.130;11.602;2023-05-14T09:57:23;13.50;99.90
37938;DHT22;23763;48.130;11.602;2023-05-14T09:59:49;13.40;99.90
37938;DHT22;23763;48.130;11.602;2023-05-14T10:02:36;13.40;99.90
37938;DHT22;23763;48.130;11.602;2023-05-14T10:05:03;13.20;99.90
37938;DHT22;23763;48.130;11.602;2023-05-14T10:07:40;13.10;99.90
37938;DHT22;23763;48.130;11.602;2023-05-14T10:10:09;13.10;99.90
37938;DHT22;23763;48.130;11.602;2023-05-14T10:12:38;13.30;99.90
37938;DHT22;23763;48.130;11.602;2023-05-14T10:15:11;13.40;99.90
37938;DHT22;23763;48.130;11.602;2023-05-14T10:17:40;13.40;99.90
37938;DHT22;23763;48.130;11.602;2023-05-14T10:20:08;13.50;99.90
37938;DHT22;23763;48.130;11.602;2023-05-14T10:22:36;13.50;99.90
37938;DHT22;23763;48.130;11.602;2023-05-14T10:25:02;13.50;99.90
37938;DHT22;23763;48.130;11.602;2023-05-14T10:27:29;13.50;99.90
37938;DHT22;23763;48.130;11.602;2023-05-14T10:29:55;13.50;99.90
37938;DHT22;23763;48.130;11.602;2023-05-14T10:32:23;13.50;99.90
37938;DHT22;23763;48.130;11.602;2023-05-14T10:34:51;13.70;99.90
37938;DHT22;23763;48.130;11.602;2023-05-14T10:37:20;13.50;99.90
37938;DHT22;23763;48.130;11.602;2023-05-14T10:39:56;13.40;99.90
37938;DHT22;23763;48.130;11.602;2023-05-14T10:42:33;13.30;99.90
37938;DHT22;23763;48.130;11.602;2023-05-14T10:45:14;13.10;99.90
37938;DHT22;23763;48.130;11.602;2023-05-14T10:47:44;13.00;99.90
37938;DHT22;23763;48.130;11.602;2023-05-14T10:50:12;13.00;99.90
37938;DHT22;23763;48.130;11.602;2023-05-14T10:52:42;13.10;99.90
37938;DHT22;23763;48.130;11.602;2023-05-14T10:55:12;13.20;99.90
37938;DHT22;23763;48.130;11.602;2023-05-14T10:57:38;13.20;99.90
37938;DHT22;23763;48.130;11.602;2023-05-14T11:00:07;13.10;99.90
37938;DHT22;23763;48.130;11.602;2023-05-14T11:02:36;13.30;99.90
37938;DHT22;23763;48.130;11.602;2023-05-14T11:05:03;13.40;99.90
37938;DHT22;23763;48.130;11.602;2023-05-14T11:10:04;13.20;99.90
37938;DHT22;23763;48.130;11.602;2023-05-14T11:12:30;13.20;99.90
37938;DHT22;23763;48.130;11.602;2023-05-14T11:14:57;13.30;99.90
37938;DHT22;23763;48.130;11.602;2023-05-14T11:17:25;13.30;99.90
37938;DHT22;23763;48.130;11.602;2023-05-14T11:19:50;13.50;99.90
37938;DHT22;23763;48.130;11.602;2023-05-14T11:22:16;13.70;99.90
37938;DHT22;23763;48.130;11.602;2023-05-14T11:24:42;13.80;99.90
37938;DHT22;23763;48.130;11.602;2023-05-14T11:27:08;13.90;99.90
37938;DHT22;23763;48.130;11.602;2023-05-14T11:29:35;14.10;99.90
37938;DHT22;23763;48.130;11.602;2023-05-14T11:32:05;14.50;99.90
37938;DHT22;23763;48.130;11.602;2023-05-14T11:34:31;14.80;99.90
37938;DHT22;23763;48.130;11.602;2023-05-14T11:36:58;15.00;99.90
37938;DHT22;23763;48.130;11.602;2023-05-14T11:39:23;15.10;99.90
37938;DHT22;23763;48.130;11.602;2023-05-14T11:41:49;15.10;99.90
37938;DHT22;23763;48.130;11.602;2023-05-14T11:44:15;15.10;99.90
37938;DHT22;23763;48.130;11.602;2023-05-14T11:46:53;15.20;99.90
37938;DHT22;23763;48.130;11.602;2023-05-14T11:49:21;15.40;99.90
37938;DHT22;23763;48.130;11.602;2023-05-14T11:51:47;15.50;99.90
37938;DHT22;23763;48.130;11.602;2023-05-14T11:54:13;15.70;99.90
37938;DHT22;23763;48.130;11.602;2023-05-14T11:56:38;15.80;99.90
37938;DHT22;23763;48.130;11.602;2023-05-14T11:59:04;16.10;99.90
37938;DHT22;23763;48.130;11.602;2023-05-14T12:01:37;16.10;99.90
37938;DHT22;23763;48.130;11.602;2023-05-14T12:04:03;16.10;99.90
37938;DHT22;23763;48.130;11.602;2023-05-14T12:06:30;16.20;99.90
37938;DHT22;23763;48.130;11.602;2023-05-14T12:08:56;16.30;99.90
37938;DHT22;23763;48.130;11.602;2023-05-14T12:11:22;16.40;99.90
37938;DHT22;23763;48.130;11.602;2023-05-14T12:13:48;16.40;99.90
37938;DHT22;23763;48.130;11.602;2023-05-14T12:16:13;16.50;99.90
37938;DHT22;23763;48.130;11.602;2023-05-14T12:18:47;16.60;99.90
37938;DHT22;23763;48.130;11.602;2023-05-14T12:21:13;16.80;99.90
37938;DHT22;23763;48.130;11.602;2023-05-14T12:23:39;16.70;99.90
37938;DHT22;23763;48.130;11.602;2023-05-14T12:26:07;16.90;99.90
37938;DHT22;23763;48.130;11.602;2023-05-14T12:28:34;17.00;99.90
37938;DHT22;23763;48.130;11.602;2023-05-14T12:31:00;16.90;99.90
37938;DHT22;23763;48.130;11.602;2023-05-14T12:33:26;16.80;99.90
37938;DHT22;23763;48.130;11.602;2023-05-14T12:35:53;16.60;99.90
37938;DHT22;23763;48.130;11.602;2023-05-14T12:38:21;16.40;99.90
37938;DHT22;23763;48.130;11.602;2023-05-14T12:40:47;16.30;99.90
37938;DHT22;23763;48.130;11.602;2023-05-14T12:43:12;16.20;99.90
37938;DHT22;23763;48.130;11.602;2023-05-14T12:45:38;16.30;99.90
37938;DHT22;23763;48.130;11.602;2023-05-14T12:48:05;16.30;99.90
37938;DHT22;23763;48.130;11.602;2023-05-14T12:50:30;16.50;99.90
37938;DHT22;23763;48.130;11.602;2023-05-14T12:52:56;16.40;99.90
37938;DHT22;23763;48.130;11.602;2023-05-14T12:55:22;16.10;99.90
37938;DHT22;23763;48.130;11.602;2023-05-14T12:57:47;16.00;99.90
37938;DHT22;23763;48.130;11.602;2023-05-14T13:00:14;15.80;99.90
37938;DHT22;23763;48.130;11.602;2023-05-14T13:02:40;15.60;99.90
37938;DHT22;23763;48.130;11.602;2023-05-14T13:05:05;15.60;99.90
37938;DHT22;23763;48.130;11.602;2023-05-14T13:07:31;15.80;99.90
37938;DHT22;23763;48.130;11.602;2023-05-14T13:09:57;16.00;99.90
37938;DHT22;23763;48.130;11.602;2023-05-14T13:12:23;16.00;99.90
37938;DHT22;23763;48.130;11.602;2023-05-14T13:14:49;16.20;99.90
37938;DHT22;23763;48.130;11.602;2023-05-14T13:17:15;16.50;99.90
37938;DHT22;23763;48.130;11.602;2023-05-14T13:19:40;16.60;99.90
37938;DHT22;23763;48.130;11.602;2023-05-14T13:22:06;16.70;99.90
37938;DHT22;23763;48.130;11.602;2023-05-14T13:24:33;16.60;99.90
37938;DHT22;23763;48.130;11.602;2023-05-14T13:26:59;16.70;99.90
37938;DHT22;23763;48.130;11.602;2023-05-14T13:29:25;16.70;99.90
37938;DHT22;23763;48.130;11.602;2023-05-14T13:31:54;16.70;99.90
37938;DHT22;23763;48.130;11.602;2023-05-14T13:34:20;16.70;99.90
37938;DHT22;23763;48.130;11.602;2023-05-14T13:36:46;16.80;99.90
37938;DHT22;23763;48.130;11.602;2023-05-14T13:39:13;16.90;99.90
37938;DHT22;23763;48.130;11.602;2023-05-14T13:41:39;16.80;99.90
37938;DHT22;23763;48.130;11.602;2023-05-14T13:44:04;16.70;99.90
37938;DHT22;23763;48.130;11.602;2023-05-14T13:46:30;16.90;99.90
37938;DHT22;23763;48.130;11.602;2023-05-14T13:48:56;16.90;99.90
37938;DHT22;23763;48.130;11.602;2023-05-14T13:51:22;17.20;99.90
37938;DHT22;23763;48.130;11.602;2023-05-14T13:53:48;17.20;99.90
37938;DHT22;23763;48.130;11.602;2023-05-14T13:56:13;17.20;99.90
37938;DHT22;23763;48.130;11.602;2023-05-14T13:58:39;17.40;99.90
37938;DHT22;23763;48.130;11.602;2023-05-14T14:01:06;17.30;99.90
37938;DHT22;23763;48.130;11.602;2023-05-14T14:03:32;17.30;99.90
37938;DHT22;23763;48.130;11.602;2023-05-14T14:05:57;17.20;99.90
37938;DHT22;23763;48.130;11.602;2023-05-14T14:08:23;17.00;99.90
37938;DHT22;23763;48.130;11.602;2023-05-14T14:10:48;16.80;99.90
37938;DHT22;23763;48.130;11.602;2023-05-14T14:13:14;16.70;99.90
37938;DHT22;23763;48.130;11.602;2023-05-14T14:15:40;16.70;99.90
37938;DHT22;23763;48.130;11.602;2023-05-14T14:18:05;16.80;99.90
37938;DHT22;23763;48.130;11.602;2023-05-14T14:20:31;16.90;99.90
37938;DHT22;23763;48.130;11.602;2023-05-14T14:22:57;17.00;99.90
37938;DHT22;23763;48.130;11.602;2023-05-14T14:25:23;16.90;99.90
37938;DHT22;23763;48.130;11.602;2023-05-14T14:27:49;17.00;99.90
37938;DHT22;23763;48.130;11.602;2023-05-14T14:30:15;17.20;99.90
37938;DHT22;23763;48.130;11.602;2023-05-14T14:32:45;17.10;99.90
37938;DHT22;23763;48.130;11.602;2023-05-14T14:35:12;16.90;99.90
37938;DHT22;23763;48.130;11.602;2023-05-14T14:37:41;16.80;99.90
37938;DHT22;23763;48.130;11.602;2023-05-14T14:40:10;16.50;99.90
37938;DHT22;23763;48.130;11.602;2023-05-14T14:42:36;16.50;99.90
37938;DHT22;23763;48.130;11.602;2023-05-14T14:45:03;16.50;99.90
37938;DHT22;23763;48.130;11.602;2023-05-14T14:47:29;16.40;99.90
37938;DHT22;23763;48.130;11.602;2023-05-14T14:49:55;16.30;99.90
37938;DHT22;23763;48.130;11.602;2023-05-14T14:52:23;16.30;99.90
37938;DHT22;23763;48.130;11.602;2023-05-14T14:54:49;16.20;99.90
37938;DHT22;23763;48.130;11.602;2023-05-14T14:57:15;16.10;99.90
37938;DHT22;23763;48.130;11.602;2023-05-14T14:59:41;16.00;99.90
37938;DHT22;23763;48.130;11.602;2023-05-14T15:02:08;16.30;99.90
37938;DHT22;23763;48.130;11.602;2023-05-14T15:04:34;16.40;99.90
37938;DHT22;23763;48.130;11.602;2023-05-14T15:07:02;16.40;99.90
37938;DHT22;23763;48.130;11.602;2023-05-14T15:09:35;16.40;99.90
37938;DHT22;23763;48.130;11.602;2023-05-14T15:12:01;16.20;99.90
37938;DHT22;23763;48.130;11.602;2023-05-14T15:14:26;16.30;99.90
37938;DHT22;23763;48.130;11.602;2023-05-14T15:16:52;16.30;99.90
37938;DHT22;23763;48.130;11.602;2023-05-14T15:19:18;16.20;99.90
37938;DHT22;23763;48.130;11.602;2023-05-14T15:21:47;16.30;99.90